Terminal Aerodrome Forecast
Issued by NWS Sioux Falls, SD

Home | Current Version | Previous Version | Graphics & Text | Print | Product List | Glossary Off
Versions: 1 2 3 4 5 6 7 8 9 10 11 12 13

000
FTUS43 KFSD 210500
TAFFSD
TAF
KFSD 210520Z 2106/2206 VRB04KT P6SM SCT080 BKN150
      TEMPO 2106/2108 -TSRA BKN060CB
     FM210900 35015G23KT P6SM BKN200
     FM211400 35019G26KT P6SM SKC
     FM220000 35012KT P6SM SKC
     FM220200 36005KT P6SM SKC=

USA.gov is the U.S. government's official web portal to all federal, state and local government web resources and services.